sensor_id;sensor_type;location;lat;lon;timestamp;P1;durP1;ratioP1;P2;durP2;ratioP2
11348;SDS011;5729;43.570;27.826;2023-04-30T00:02:19;8.73;;;4.60;;
11348;SDS011;5729;43.570;27.826;2023-04-30T00:04:44;5.55;;;4.20;;
11348;SDS011;5729;43.570;27.826;2023-04-30T00:07:10;6.22;;;4.60;;
11348;SDS011;5729;43.570;27.826;2023-04-30T00:09:35;6.03;;;4.53;;
11348;SDS011;5729;43.570;27.826;2023-04-30T00:12:01;6.20;;;4.40;;
11348;SDS011;5729;43.570;27.826;2023-04-30T00:14:26;6.85;;;5.03;;
11348;SDS011;5729;43.570;27.826;2023-04-30T00:16:52;7.18;;;4.88;;
11348;SDS011;5729;43.570;27.826;2023-04-30T00:19:17;6.68;;;4.45;;
11348;SDS011;5729;43.570;27.826;2023-04-30T00:21:43;8.68;;;4.20;;
11348;SDS011;5729;43.570;27.826;2023-04-30T00:24:08;5.45;;;4.60;;
11348;SDS011;5729;43.570;27.826;2023-04-30T00:26:33;6.57;;;4.78;;
11348;SDS011;5729;43.570;27.826;2023-04-30T00:28:59;7.85;;;5.07;;
11348;SDS011;5729;43.570;27.826;2023-04-30T00:31:24;10.07;;;5.40;;
11348;SDS011;5729;43.570;27.826;2023-04-30T00:33:50;8.13;;;5.15;;
11348;SDS011;5729;43.570;27.826;2023-04-30T00:36:15;12.48;;;5.00;;
11348;SDS011;5729;43.570;27.826;2023-04-30T00:38:41;9.43;;;5.10;;
11348;SDS011;5729;43.570;27.826;2023-04-30T00:41:07;8.93;;;4.90;;
11348;SDS011;5729;43.570;27.826;2023-04-30T00:43:32;14.70;;;5.38;;
11348;SDS011;5729;43.570;27.826;2023-04-30T00:45:58;9.60;;;4.90;;
11348;SDS011;5729;43.570;27.826;2023-04-30T00:48:24;7.00;;;4.65;;
11348;SDS011;5729;43.570;27.826;2023-04-30T00:50:50;6.60;;;4.97;;
11348;SDS011;5729;43.570;27.826;2023-04-30T00:53:16;8.52;;;4.72;;
11348;SDS011;5729;43.570;27.826;2023-04-30T00:55:42;6.57;;;5.35;;
11348;SDS011;5729;43.570;27.826;2023-04-30T00:58:08;8.32;;;5.47;;
11348;SDS011;5729;43.570;27.826;2023-04-30T01:00:34;9.30;;;5.63;;
11348;SDS011;5729;43.570;27.826;2023-04-30T01:02:59;9.80;;;5.15;;
11348;SDS011;5729;43.570;27.826;2023-04-30T01:05:25;9.68;;;6.05;;
11348;SDS011;5729;43.570;27.826;2023-04-30T01:07:51;9.75;;;5.32;;
11348;SDS011;5729;43.570;27.826;2023-04-30T01:10:22;9.52;;;5.78;;
11348;SDS011;5729;43.570;27.826;2023-04-30T01:13:06;8.40;;;5.43;;
11348;SDS011;5729;43.570;27.826;2023-04-30T01:15:46;8.85;;;5.82;;
11348;SDS011;5729;43.570;27.826;2023-04-30T01:18:56;8.52;;;5.03;;
11348;SDS011;5729;43.570;27.826;2023-04-30T01:21:24;13.70;;;5.60;;
11348;SDS011;5729;43.570;27.826;2023-04-30T01:29:22;9.98;;;5.65;;
11348;SDS011;5729;43.570;27.826;2023-04-30T01:31:49;14.50;;;5.63;;
11348;SDS011;5729;43.570;27.826;2023-04-30T01:34:14;9.93;;;5.25;;
11348;SDS011;5729;43.570;27.826;2023-04-30T01:42:48;11.00;;;5.60;;
11348;SDS011;5729;43.570;27.826;2023-04-30T01:45:26;7.18;;;5.28;;
11348;SDS011;5729;43.570;27.826;2023-04-30T01:50:36;7.50;;;5.70;;
11348;SDS011;5729;43.570;27.826;2023-04-30T01:53:08;8.55;;;5.85;;
11348;SDS011;5729;43.570;27.826;2023-04-30T01:55:48;8.88;;;5.60;;
11348;SDS011;5729;43.570;27.826;2023-04-30T01:58:19;7.97;;;5.22;;
11348;SDS011;5729;43.570;27.826;2023-04-30T02:00:47;6.70;;;5.40;;
11348;SDS011;5729;43.570;27.826;2023-04-30T02:03:13;7.45;;;5.45;;
11348;SDS011;5729;43.570;27.826;2023-04-30T02:05:38;8.68;;;5.68;;
11348;SDS011;5729;43.570;27.826;2023-04-30T02:08:04;7.43;;;5.57;;
11348;SDS011;5729;43.570;27.826;2023-04-30T02:10:29;9.00;;;5.50;;
11348;SDS011;5729;43.570;27.826;2023-04-30T02:12:55;8.57;;;5.45;;
11348;SDS011;5729;43.570;27.826;2023-04-30T02:15:20;10.75;;;5.80;;
11348;SDS011;5729;43.570;27.826;2023-04-30T02:17:46;8.88;;;5.25;;
11348;SDS011;5729;43.570;27.826;2023-04-30T02:20:11;11.55;;;6.63;;
11348;SDS011;5729;43.570;27.826;2023-04-30T02:22:37;7.32;;;5.28;;
11348;SDS011;5729;43.570;27.826;2023-04-30T02:25:03;7.60;;;5.30;;
11348;SDS011;5729;43.570;27.826;2023-04-30T02:27:29;8.02;;;5.53;;
11348;SDS011;5729;43.570;27.826;2023-04-30T02:29:56;10.45;;;5.50;;
11348;SDS011;5729;43.570;27.826;2023-04-30T02:32:22;6.30;;;5.20;;
11348;SDS011;5729;43.570;27.826;2023-04-30T02:34:47;10.73;;;5.85;;
11348;SDS011;5729;43.570;27.826;2023-04-30T02:37:13;8.20;;;5.93;;
11348;SDS011;5729;43.570;27.826;2023-04-30T02:39:39;12.57;;;5.82;;
11348;SDS011;5729;43.570;27.826;2023-04-30T02:42:05;7.15;;;5.53;;
11348;SDS011;5729;43.570;27.826;2023-04-30T02:44:31;7.97;;;5.70;;
11348;SDS011;5729;43.570;27.826;2023-04-30T02:46:57;9.95;;;5.50;;
11348;SDS011;5729;43.570;27.826;2023-04-30T02:49:22;10.07;;;5.28;;
11348;SDS011;5729;43.570;27.826;2023-04-30T02:51:48;8.05;;;5.80;;
11348;SDS011;5729;43.570;27.826;2023-04-30T02:54:13;8.90;;;5.90;;
11348;SDS011;5729;43.570;27.826;2023-04-30T02:56:39;7.10;;;5.53;;
11348;SDS011;5729;43.570;27.826;2023-04-30T02:59:05;7.93;;;5.50;;
11348;SDS011;5729;43.570;27.826;2023-04-30T03:01:31;7.68;;;5.18;;
11348;SDS011;5729;43.570;27.826;2023-04-30T03:03:56;7.38;;;5.68;;
11348;SDS011;5729;43.570;27.826;2023-04-30T03:06:27;9.35;;;5.57;;
11348;SDS011;5729;43.570;27.826;2023-04-30T03:08:53;7.40;;;5.55;;
11348;SDS011;5729;43.570;27.826;2023-04-30T03:11:18;9.45;;;5.78;;
11348;SDS011;5729;43.570;27.826;2023-04-30T03:13:44;8.52;;;5.30;;
11348;SDS011;5729;43.570;27.826;2023-04-30T03:16:10;7.03;;;5.55;;
11348;SDS011;5729;43.570;27.826;2023-04-30T03:18:35;9.32;;;5.95;;
11348;SDS011;5729;43.570;27.826;2023-04-30T03:21:01;12.88;;;5.18;;
11348;SDS011;5729;43.570;27.826;2023-04-30T03:23:27;8.20;;;5.55;;
11348;SDS011;5729;43.570;27.826;2023-04-30T03:25:53;7.30;;;5.00;;
11348;SDS011;5729;43.570;27.826;2023-04-30T03:28:18;8.65;;;5.55;;
11348;SDS011;5729;43.570;27.826;2023-04-30T03:30:44;8.93;;;5.70;;
11348;SDS011;5729;43.570;27.826;2023-04-30T03:33:09;11.82;;;5.75;;
11348;SDS011;5729;43.570;27.826;2023-04-30T03:35:35;7.25;;;4.97;;
11348;SDS011;5729;43.570;27.826;2023-04-30T03:38:00;7.00;;;5.80;;
11348;SDS011;5729;43.570;27.826;2023-04-30T03:40:26;10.75;;;5.18;;
11348;SDS011;5729;43.570;27.826;2023-04-30T03:42:51;11.65;;;5.55;;
11348;SDS011;5729;43.570;27.826;2023-04-30T03:45:17;6.68;;;5.00;;
11348;SDS011;5729;43.570;27.826;2023-04-30T03:47:43;8.15;;;5.60;;
11348;SDS011;5729;43.570;27.826;2023-04-30T03:50:09;8.48;;;5.47;;
11348;SDS011;5729;43.570;27.826;2023-04-30T03:52:34;8.43;;;5.70;;
11348;SDS011;5729;43.570;27.826;2023-04-30T03:55:03;10.55;;;5.30;;
11348;SDS011;5729;43.570;27.826;2023-04-30T03:57:29;12.70;;;5.53;;
11348;SDS011;5729;43.570;27.826;2023-04-30T03:59:55;9.43;;;6.35;;
11348;SDS011;5729;43.570;27.826;2023-04-30T04:02:20;13.15;;;7.20;;
11348;SDS011;5729;43.570;27.826;2023-04-30T04:04:46;10.23;;;5.95;;
11348;SDS011;5729;43.570;27.826;2023-04-30T04:07:12;9.25;;;5.72;;
11348;SDS011;5729;43.570;27.826;2023-04-30T04:09:39;11.52;;;5.80;;
11348;SDS011;5729;43.570;27.826;2023-04-30T04:12:04;11.40;;;6.38;;
11348;SDS011;5729;43.570;27.826;2023-04-30T04:14:30;7.70;;;6.15;;
11348;SDS011;5729;43.570;27.826;2023-04-30T04:16:55;11.30;;;5.97;;
11348;SDS011;5729;43.570;27.826;2023-04-30T04:19:22;10.55;;;5.90;;
11348;SDS011;5729;43.570;27.826;2023-04-30T04:21:48;9.18;;;5.93;;
11348;SDS011;5729;43.570;27.826;2023-04-30T04:24:13;13.90;;;5.93;;
11348;SDS011;5729;43.570;27.826;2023-04-30T04:26:39;9.00;;;6.35;;
11348;SDS011;5729;43.570;27.826;2023-04-30T04:29:05;12.32;;;4.95;;
11348;SDS011;5729;43.570;27.826;2023-04-30T04:31:33;9.70;;;5.28;;
11348;SDS011;5729;43.570;27.826;2023-04-30T04:33:59;14.43;;;6.82;;
11348;SDS011;5729;43.570;27.826;2023-04-30T04:36:26;8.10;;;6.20;;
11348;SDS011;5729;43.570;27.826;2023-04-30T04:38:55;9.40;;;5.30;;
11348;SDS011;5729;43.570;27.826;2023-04-30T04:41:28;11.18;;;6.10;;
11348;SDS011;5729;43.570;27.826;2023-04-30T04:43:54;8.25;;;5.50;;
11348;SDS011;5729;43.570;27.826;2023-04-30T04:46:21;8.82;;;5.43;;
11348;SDS011;5729;43.570;27.826;2023-04-30T04:48:47;9.80;;;5.07;;
11348;SDS011;5729;43.570;27.826;2023-04-30T04:51:13;6.45;;;4.72;;
11348;SDS011;5729;43.570;27.826;2023-04-30T04:53:38;9.93;;;5.97;;
11348;SDS011;5729;43.570;27.826;2023-04-30T04:56:04;9.93;;;7.30;;
11348;SDS011;5729;43.570;27.826;2023-04-30T04:58:31;7.25;;;4.72;;
11348;SDS011;5729;43.570;27.826;2023-04-30T05:00:56;9.45;;;4.90;;
11348;SDS011;5729;43.570;27.826;2023-04-30T05:03:24;8.93;;;4.75;;
11348;SDS011;5729;43.570;27.826;2023-04-30T05:05:50;10.40;;;5.20;;
11348;SDS011;5729;43.570;27.826;2023-04-30T05:08:17;11.00;;;5.20;;
11348;SDS011;5729;43.570;27.826;2023-04-30T05:10:42;8.82;;;5.70;;
11348;SDS011;5729;43.570;27.826;2023-04-30T05:13:08;9.15;;;5.20;;
11348;SDS011;5729;43.570;27.826;2023-04-30T05:15:33;9.05;;;4.78;;
11348;SDS011;5729;43.570;27.826;2023-04-30T05:17:59;6.07;;;5.00;;
11348;SDS011;5729;43.570;27.826;2023-04-30T05:20:24;12.50;;;4.93;;
11348;SDS011;5729;43.570;27.826;2023-04-30T05:22:49;7.35;;;5.30;;
11348;SDS011;5729;43.570;27.826;2023-04-30T05:25:15;5.18;;;4.45;;
11348;SDS011;5729;43.570;27.826;2023-04-30T05:27:41;7.57;;;4.53;;
11348;SDS011;5729;43.570;27.826;2023-04-30T05:30:06;5.72;;;4.60;;
11348;SDS011;5729;43.570;27.826;2023-04-30T05:32:33;8.13;;;4.78;;
11348;SDS011;5729;43.570;27.826;2023-04-30T05:34:58;6.28;;;4.28;;
11348;SDS011;5729;43.570;27.826;2023-04-30T05:37:24;8.15;;;4.65;;
11348;SDS011;5729;43.570;27.826;2023-04-30T05:39:50;6.07;;;3.85;;
11348;SDS011;5729;43.570;27.826;2023-04-30T05:42:17;5.65;;;4.15;;
11348;SDS011;5729;43.570;27.826;2023-04-30T05:44:43;11.52;;;3.90;;
11348;SDS011;5729;43.570;27.826;2023-04-30T05:47:08;7.63;;;3.88;;
11348;SDS011;5729;43.570;27.826;2023-04-30T05:49:34;7.35;;;4.20;;
11348;SDS011;5729;43.570;27.826;2023-04-30T05:51:59;5.28;;;3.67;;
11348;SDS011;5729;43.570;27.826;2023-04-30T05:54:27;8.52;;;4.25;;
11348;SDS011;5729;43.570;27.826;2023-04-30T05:56:53;7.35;;;4.32;;
11348;SDS011;5729;43.570;27.826;2023-04-30T05:59:18;6.00;;;3.90;;
11348;SDS011;5729;43.570;27.826;2023-04-30T06:01:44;7.00;;;3.50;;
11348;SDS011;5729;43.570;27.826;2023-04-30T06:04:09;4.57;;;3.28;;
11348;SDS011;5729;43.570;27.826;2023-04-30T06:06:35;7.32;;;3.92;;
11348;SDS011;5729;43.570;27.826;2023-04-30T06:09:01;9.13;;;3.40;;
11348;SDS011;5729;43.570;27.826;2023-04-30T06:11:26;5.70;;;3.63;;
11348;SDS011;5729;43.570;27.826;2023-04-30T06:13:52;5.57;;;3.58;;
11348;SDS011;5729;43.570;27.826;2023-04-30T06:16:17;5.50;;;3.80;;
11348;SDS011;5729;43.570;27.826;2023-04-30T06:18:43;8.82;;;5.20;;
11348;SDS011;5729;43.570;27.826;2023-04-30T06:21:08;11.20;;;4.60;;
11348;SDS011;5729;43.570;27.826;2023-04-30T06:23:34;8.95;;;4.43;;
11348;SDS011;5729;43.570;27.826;2023-04-30T06:26:00;6.30;;;4.28;;
11348;SDS011;5729;43.570;27.826;2023-04-30T06:28:25;5.18;;;3.40;;
11348;SDS011;5729;43.570;27.826;2023-04-30T06:30:51;6.47;;;3.80;;
11348;SDS011;5729;43.570;27.826;2023-04-30T06:33:18;10.35;;;3.75;;
11348;SDS011;5729;43.570;27.826;2023-04-30T06:35:43;4.35;;;2.78;;
11348;SDS011;5729;43.570;27.826;2023-04-30T06:38:09;9.63;;;3.00;;
11348;SDS011;5729;43.570;27.826;2023-04-30T06:40:34;5.10;;;3.25;;
11348;SDS011;5729;43.570;27.826;2023-04-30T06:43:00;5.20;;;3.13;;
11348;SDS011;5729;43.570;27.826;2023-04-30T06:45:25;6.93;;;3.72;;
11348;SDS011;5729;43.570;27.826;2023-04-30T06:47:50;5.18;;;3.22;;
11348;SDS011;5729;43.570;27.826;2023-04-30T06:50:17;4.32;;;3.10;;
11348;SDS011;5729;43.570;27.826;2023-04-30T06:52:43;7.15;;;3.00;;
11348;SDS011;5729;43.570;27.826;2023-04-30T06:55:08;3.97;;;2.58;;
11348;SDS011;5729;43.570;27.826;2023-04-30T06:57:34;5.07;;;2.90;;
11348;SDS011;5729;43.570;27.826;2023-04-30T07:00:02;6.72;;;3.80;;
11348;SDS011;5729;43.570;27.826;2023-04-30T07:02:30;3.13;;;2.30;;
11348;SDS011;5729;43.570;27.826;2023-04-30T07:04:56;4.90;;;2.58;;
11348;SDS011;5729;43.570;27.826;2023-04-30T07:07:22;3.88;;;2.30;;
11348;SDS011;5729;43.570;27.826;2023-04-30T07:09:47;5.13;;;2.53;;
11348;SDS011;5729;43.570;27.826;2023-04-30T07:12:13;3.55;;;2.28;;
11348;SDS011;5729;43.570;27.826;2023-04-30T07:14:38;5.30;;;2.80;;
11348;SDS011;5729;43.570;27.826;2023-04-30T07:17:04;5.22;;;2.50;;
11348;SDS011;5729;43.570;27.826;2023-04-30T07:19:30;3.28;;;2.45;;
11348;SDS011;5729;43.570;27.826;2023-04-30T07:21:56;3.70;;;2.30;;
11348;SDS011;5729;43.570;27.826;2023-04-30T07:24:22;3.22;;;2.55;;
11348;SDS011;5729;43.570;27.826;2023-04-30T07:26:47;4.15;;;2.42;;
11348;SDS011;5729;43.570;27.826;2023-04-30T07:29:13;5.82;;;2.10;;
11348;SDS011;5729;43.570;27.826;2023-04-30T07:31:38;2.70;;;2.35;;
11348;SDS011;5729;43.570;27.826;2023-04-30T07:34:04;3.47;;;2.60;;
11348;SDS011;5729;43.570;27.826;2023-04-30T07:36:29;3.67;;;2.30;;
11348;SDS011;5729;43.570;27.826;2023-04-30T07:38:55;3.05;;;2.40;;
11348;SDS011;5729;43.570;27.826;2023-04-30T07:41:20;4.05;;;2.47;;
11348;SDS011;5729;43.570;27.826;2023-04-30T07:43:46;5.20;;;2.67;;
11348;SDS011;5729;43.570;27.826;2023-04-30T07:46:11;4.22;;;2.70;;
11348;SDS011;5729;43.570;27.826;2023-04-30T07:48:36;3.75;;;2.72;;
11348;SDS011;5729;43.570;27.826;2023-04-30T07:51:03;4.63;;;2.20;;
11348;SDS011;5729;43.570;27.826;2023-04-30T07:53:29;4.28;;;2.50;;
11348;SDS011;5729;43.570;27.826;2023-04-30T07:55:54;3.42;;;2.33;;
11348;SDS011;5729;43.570;27.826;2023-04-30T07:58:20;5.75;;;2.10;;
11348;SDS011;5729;43.570;27.826;2023-04-30T08:00:45;6.07;;;2.55;;
11348;SDS011;5729;43.570;27.826;2023-04-30T08:03:10;3.28;;;2.20;;
11348;SDS011;5729;43.570;27.826;2023-04-30T08:05:36;3.15;;;2.15;;
11348;SDS011;5729;43.570;27.826;2023-04-30T08:08:02;5.28;;;2.47;;
11348;SDS011;5729;43.570;27.826;2023-04-30T08:10:27;4.88;;;2.50;;
11348;SDS011;5729;43.570;27.826;2023-04-30T08:12:53;3.92;;;2.22;;
11348;SDS011;5729;43.570;27.826;2023-04-30T08:15:18;3.92;;;2.75;;
11348;SDS011;5729;43.570;27.826;2023-04-30T08:17:50;7.43;;;3.00;;
11348;SDS011;5729;43.570;27.826;2023-04-30T08:20:16;10.13;;;3.30;;
11348;SDS011;5729;43.570;27.826;2023-04-30T08:22:42;5.95;;;2.70;;
11348;SDS011;5729;43.570;27.826;2023-04-30T08:25:11;4.43;;;2.58;;
11348;SDS011;5729;43.570;27.826;2023-04-30T08:27:36;6.22;;;2.72;;
11348;SDS011;5729;43.570;27.826;2023-04-30T08:30:03;5.43;;;2.33;;
11348;SDS011;5729;43.570;27.826;2023-04-30T08:32:30;4.63;;;2.72;;
11348;SDS011;5729;43.570;27.826;2023-04-30T08:34:58;5.40;;;2.50;;
11348;SDS011;5729;43.570;27.826;2023-04-30T08:37:23;5.28;;;2.60;;
11348;SDS011;5729;43.570;27.826;2023-04-30T08:39:48;12.93;;;2.55;;
11348;SDS011;5729;43.570;27.826;2023-04-30T08:42:14;7.30;;;2.78;;
11348;SDS011;5729;43.570;27.826;2023-04-30T08:44:43;9.27;;;4.25;;
11348;SDS011;5729;43.570;27.826;2023-04-30T08:47:11;15.75;;;7.47;;
11348;SDS011;5729;43.570;27.826;2023-04-30T08:49:38;5.07;;;2.65;;
11348;SDS011;5729;43.570;27.826;2023-04-30T08:52:05;12.13;;;5.65;;
11348;SDS011;5729;43.570;27.826;2023-04-30T08:54:30;6.05;;;2.72;;
11348;SDS011;5729;43.570;27.826;2023-04-30T08:56:57;6.78;;;3.53;;
11348;SDS011;5729;43.570;27.826;2023-04-30T08:59:22;5.35;;;2.92;;
11348;SDS011;5729;43.570;27.826;2023-04-30T09:01:48;6.13;;;2.47;;
11348;SDS011;5729;43.570;27.826;2023-04-30T09:04:13;3.22;;;2.72;;
11348;SDS011;5729;43.570;27.826;2023-04-30T09:06:38;11.43;;;4.97;;
11348;SDS011;5729;43.570;27.826;2023-04-30T09:09:11;2.80;;;2.20;;
11348;SDS011;5729;43.570;27.826;2023-04-30T09:11:38;3.25;;;2.50;;
11348;SDS011;5729;43.570;27.826;2023-04-30T09:14:03;3.28;;;2.55;;
11348;SDS011;5729;43.570;27.826;2023-04-30T09:16:43;3.90;;;2.70;;
11348;SDS011;5729;43.570;27.826;2023-04-30T09:21:51;3.65;;;2.15;;
11348;SDS011;5729;43.570;27.826;2023-04-30T09:24:17;4.25;;;2.30;;
11348;SDS011;5729;43.570;27.826;2023-04-30T09:26:43;5.30;;;2.20;;
11348;SDS011;5729;43.570;27.826;2023-04-30T09:29:11;3.45;;;2.33;;
11348;SDS011;5729;43.570;27.826;2023-04-30T09:31:37;4.28;;;2.70;;
11348;SDS011;5729;43.570;27.826;2023-04-30T09:34:04;3.97;;;2.50;;
11348;SDS011;5729;43.570;27.826;2023-04-30T09:36:30;4.47;;;2.30;;
11348;SDS011;5729;43.570;27.826;2023-04-30T09:39:04;6.97;;;2.83;;
11348;SDS011;5729;43.570;27.826;2023-04-30T09:41:30;5.78;;;2.40;;
11348;SDS011;5729;43.570;27.826;2023-04-30T09:43:56;5.15;;;2.60;;
11348;SDS011;5729;43.570;27.826;2023-04-30T09:46:32;6.10;;;2.80;;
11348;SDS011;5729;43.570;27.826;2023-04-30T09:49:00;4.70;;;2.28;;
11348;SDS011;5729;43.570;27.826;2023-04-30T09:51:27;4.90;;;2.83;;
11348;SDS011;5729;43.570;27.826;2023-04-30T09:53:53;4.28;;;2.53;;
11348;SDS011;5729;43.570;27.826;2023-04-30T09:56:20;8.43;;;2.92;;
11348;SDS011;5729;43.570;27.826;2023-04-30T09:58:51;3.95;;;2.30;;
11348;SDS011;5729;43.570;27.826;2023-04-30T10:01:18;5.80;;;3.13;;
11348;SDS011;5729;43.570;27.826;2023-04-30T10:03:46;5.25;;;2.70;;
11348;SDS011;5729;43.570;27.826;2023-04-30T10:06:12;4.18;;;2.35;;
11348;SDS011;5729;43.570;27.826;2023-04-30T10:08:41;5.07;;;2.20;;
11348;SDS011;5729;43.570;27.826;2023-04-30T10:11:08;4.85;;;2.65;;
11348;SDS011;5729;43.570;27.826;2023-04-30T10:19:06;4.05;;;2.35;;
11348;SDS011;5729;43.570;27.826;2023-04-30T10:21:36;5.32;;;2.88;;
11348;SDS011;5729;43.570;27.826;2023-04-30T10:24:04;2.88;;;2.17;;
11348;SDS011;5729;43.570;27.826;2023-04-30T10:26:30;3.72;;;2.05;;
11348;SDS011;5729;43.570;27.826;2023-04-30T10:28:56;6.13;;;2.60;;
11348;SDS011;5729;43.570;27.826;2023-04-30T10:31:25;4.68;;;2.40;;
11348;SDS011;5729;43.570;27.826;2023-04-30T10:34:03;5.15;;;2.33;;
11348;SDS011;5729;43.570;27.826;2023-04-30T10:36:45;5.30;;;2.47;;
11348;SDS011;5729;43.570;27.826;2023-04-30T10:39:20;4.97;;;2.35;;
11348;SDS011;5729;43.570;27.826;2023-04-30T10:41:47;4.75;;;2.35;;
11348;SDS011;5729;43.570;27.826;2023-04-30T10:44:13;2.88;;;2.25;;
11348;SDS011;5729;43.570;27.826;2023-04-30T10:46:46;3.55;;;2.22;;
11348;SDS011;5729;43.570;27.826;2023-04-30T10:49:11;4.80;;;2.35;;
11348;SDS011;5729;43.570;27.826;2023-04-30T10:51:48;4.30;;;2.30;;
11348;SDS011;5729;43.570;27.826;2023-04-30T10:54:26;7.10;;;2.47;;
11348;SDS011;5729;43.570;27.826;2023-04-30T10:56:53;6.60;;;2.80;;
11348;SDS011;5729;43.570;27.826;2023-04-30T10:59:33;5.88;;;2.30;;
11348;SDS011;5729;43.570;27.826;2023-04-30T11:01:59;5.60;;;2.53;;
11348;SDS011;5729;43.570;27.826;2023-04-30T11:04:26;3.58;;;2.03;;
11348;SDS011;5729;43.570;27.826;2023-04-30T11:09:18;3.65;;;2.13;;
11348;SDS011;5729;43.570;27.826;2023-04-30T11:11:44;4.35;;;2.35;;
11348;SDS011;5729;43.570;27.826;2023-04-30T11:14:19;2.35;;;2.13;;
11348;SDS011;5729;43.570;27.826;2023-04-30T11:16:47;5.57;;;2.60;;
11348;SDS011;5729;43.570;27.826;2023-04-30T11:19:14;9.90;;;2.50;;
11348;SDS011;5729;43.570;27.826;2023-04-30T11:21:40;5.80;;;2.30;;
11348;SDS011;5729;43.570;27.826;2023-04-30T11:24:06;5.35;;;2.30;;
11348;SDS011;5729;43.570;27.826;2023-04-30T11:29:32;8.20;;;2.67;;
11348;SDS011;5729;43.570;27.826;2023-04-30T11:32:02;6.78;;;2.60;;
11348;SDS011;5729;43.570;27.826;2023-04-30T11:34:29;6.47;;;2.55;;
11348;SDS011;5729;43.570;27.826;2023-04-30T11:36:57;3.05;;;2.58;;
11348;SDS011;5729;43.570;27.826;2023-04-30T11:39:24;5.40;;;2.58;;
11348;SDS011;5729;43.570;27.826;2023-04-30T11:41:52;4.22;;;2.15;;
11348;SDS011;5729;43.570;27.826;2023-04-30T11:44:22;5.00;;;2.75;;
11348;SDS011;5729;43.570;27.826;2023-04-30T11:46:49;5.25;;;2.45;;
11348;SDS011;5729;43.570;27.826;2023-04-30T11:49:15;5.07;;;2.42;;
11348;SDS011;5729;43.570;27.826;2023-04-30T11:51:41;2.42;;;2.15;;
11348;SDS011;5729;43.570;27.826;2023-04-30T11:54:07;2.90;;;2.20;;
11348;SDS011;5729;43.570;27.826;2023-04-30T11:56:36;3.08;;;2.53;;
11348;SDS011;5729;43.570;27.826;2023-04-30T11:59:07;4.75;;;2.08;;
11348;SDS011;5729;43.570;27.826;2023-04-30T12:01:34;5.28;;;2.40;;
11348;SDS011;5729;43.570;27.826;2023-04-30T12:04:00;7.22;;;2.42;;
11348;SDS011;5729;43.570;27.826;2023-04-30T12:06:30;4.32;;;2.22;;
11348;SDS011;5729;43.570;27.826;2023-04-30T12:08:59;3.38;;;2.40;;
11348;SDS011;5729;43.570;27.826;2023-04-30T12:11:30;4.25;;;2.22;;
11348;SDS011;5729;43.570;27.826;2023-04-30T12:19:16;3.83;;;2.58;;
11348;SDS011;5729;43.570;27.826;2023-04-30T12:21:43;8.07;;;2.47;;
11348;SDS011;5729;43.570;27.826;2023-04-30T12:24:13;4.03;;;2.40;;
11348;SDS011;5729;43.570;27.826;2023-04-30T12:26:40;4.30;;;2.38;;
11348;SDS011;5729;43.570;27.826;2023-04-30T12:29:07;2.13;;;1.95;;
11348;SDS011;5729;43.570;27.826;2023-04-30T12:31:35;7.90;;;2.38;;
11348;SDS011;5729;43.570;27.826;2023-04-30T12:34:02;6.53;;;2.20;;
11348;SDS011;5729;43.570;27.826;2023-04-30T12:36:30;3.55;;;2.42;;
11348;SDS011;5729;43.570;27.826;2023-04-30T12:39:06;2.90;;;2.20;;
11348;SDS011;5729;43.570;27.826;2023-04-30T12:41:39;7.00;;;2.50;;
11348;SDS011;5729;43.570;27.826;2023-04-30T12:47:05;4.03;;;2.05;;
11348;SDS011;5729;43.570;27.826;2023-04-30T12:49:35;3.97;;;2.22;;
11348;SDS011;5729;43.570;27.826;2023-04-30T12:52:04;2.50;;;2.20;;
11348;SDS011;5729;43.570;27.826;2023-04-30T12:54:33;4.25;;;2.80;;
11348;SDS011;5729;43.570;27.826;2023-04-30T12:57:10;2.88;;;2.38;;
11348;SDS011;5729;43.570;27.826;2023-04-30T12:59:58;8.52;;;2.42;;
11348;SDS011;5729;43.570;27.826;2023-04-30T13:02:24;3.60;;;2.70;;
11348;SDS011;5729;43.570;27.826;2023-04-30T13:04:51;6.15;;;2.17;;
11348;SDS011;5729;43.570;27.826;2023-04-30T13:07:17;4.40;;;1.98;;
11348;SDS011;5729;43.570;27.826;2023-04-30T13:09:43;4.53;;;2.20;;
11348;SDS011;5729;43.570;27.826;2023-04-30T13:12:08;3.65;;;2.72;;
11348;SDS011;5729;43.570;27.826;2023-04-30T13:14:34;5.85;;;2.85;;
11348;SDS011;5729;43.570;27.826;2023-04-30T13:17:00;4.88;;;2.22;;
11348;SDS011;5729;43.570;27.826;2023-04-30T13:19:29;3.80;;;2.67;;
11348;SDS011;5729;43.570;27.826;2023-04-30T13:21:55;4.35;;;2.63;;
11348;SDS011;5729;43.570;27.826;2023-04-30T13:24:21;7.00;;;2.40;;
11348;SDS011;5729;43.570;27.826;2023-04-30T13:26:47;4.50;;;2.30;;
11348;SDS011;5729;43.570;27.826;2023-04-30T13:29:13;6.25;;;2.28;;
11348;SDS011;5729;43.570;27.826;2023-04-30T13:31:38;6.20;;;2.60;;
11348;SDS011;5729;43.570;27.826;2023-04-30T13:34:03;3.33;;;2.42;;
11348;SDS011;5729;43.570;27.826;2023-04-30T13:36:29;3.60;;;2.47;;
11348;SDS011;5729;43.570;27.826;2023-04-30T13:38:55;4.80;;;2.30;;
11348;SDS011;5729;43.570;27.826;2023-04-30T13:41:22;3.15;;;2.38;;
11348;SDS011;5729;43.570;27.826;2023-04-30T13:43:48;6.13;;;2.70;;
11348;SDS011;5729;43.570;27.826;2023-04-30T13:46:13;6.68;;;2.80;;
11348;SDS011;5729;43.570;27.826;2023-04-30T13:48:39;5.28;;;2.83;;
11348;SDS011;5729;43.570;27.826;2023-04-30T13:51:05;9.55;;;3.20;;
11348;SDS011;5729;43.570;27.826;2023-04-30T13:53:31;3.65;;;2.30;;
11348;SDS011;5729;43.570;27.826;2023-04-30T13:55:56;4.57;;;2.30;;
11348;SDS011;5729;43.570;27.826;2023-04-30T13:58:23;6.32;;;2.80;;
11348;SDS011;5729;43.570;27.826;2023-04-30T14:00:49;5.40;;;2.50;;
11348;SDS011;5729;43.570;27.826;2023-04-30T14:03:15;3.35;;;2.30;;
11348;SDS011;5729;43.570;27.826;2023-04-30T14:05:42;5.10;;;2.03;;
11348;SDS011;5729;43.570;27.826;2023-04-30T14:08:08;5.28;;;2.38;;
11348;SDS011;5729;43.570;27.826;2023-04-30T14:10:33;8.73;;;2.38;;
11348;SDS011;5729;43.570;27.826;2023-04-30T14:12:59;12.82;;;2.22;;
11348;SDS011;5729;43.570;27.826;2023-04-30T14:15:24;6.63;;;2.05;;
11348;SDS011;5729;43.570;27.826;2023-04-30T14:17:50;6.88;;;2.03;;
11348;SDS011;5729;43.570;27.826;2023-04-30T14:20:16;3.13;;;2.15;;
11348;SDS011;5729;43.570;27.826;2023-04-30T14:22:42;2.70;;;2.10;;
11348;SDS011;5729;43.570;27.826;2023-04-30T14:25:08;3.97;;;2.45;;
11348;SDS011;5729;43.570;27.826;2023-04-30T14:27:34;6.05;;;2.30;;
11348;SDS011;5729;43.570;27.826;2023-04-30T14:30:00;3.67;;;2.22;;
11348;SDS011;5729;43.570;27.826;2023-04-30T14:32:25;2.95;;;2.17;;
11348;SDS011;5729;43.570;27.826;2023-04-30T14:34:51;11.50;;;2.70;;
11348;SDS011;5729;43.570;27.826;2023-04-30T14:37:17;4.63;;;1.90;;
11348;SDS011;5729;43.570;27.826;2023-04-30T14:39:43;6.53;;;2.03;;
11348;SDS011;5729;43.570;27.826;2023-04-30T14:42:10;6.15;;;2.47;;
11348;SDS011;5729;43.570;27.826;2023-04-30T14:44:36;6.43;;;2.40;;
11348;SDS011;5729;43.570;27.826;2023-04-30T14:47:01;9.68;;;5.80;;
11348;SDS011;5729;43.570;27.826;2023-04-30T14:49:27;7.85;;;5.25;;
11348;SDS011;5729;43.570;27.826;2023-04-30T14:51:53;7.43;;;2.67;;
11348;SDS011;5729;43.570;27.826;2023-04-30T14:54:18;3.38;;;2.20;;
11348;SDS011;5729;43.570;27.826;2023-04-30T14:56:43;2.88;;;2.00;;
11348;SDS011;5729;43.570;27.826;2023-04-30T14:59:09;5.35;;;2.10;;
11348;SDS011;5729;43.570;27.826;2023-04-30T15:01:36;3.85;;;2.08;;
11348;SDS011;5729;43.570;27.826;2023-04-30T15:04:02;5.03;;;2.45;;
11348;SDS011;5729;43.570;27.826;2023-04-30T15:06:27;3.67;;;2.40;;
11348;SDS011;5729;43.570;27.826;2023-04-30T15:08:53;8.50;;;2.15;;
11348;SDS011;5729;43.570;27.826;2023-04-30T15:11:19;6.50;;;2.15;;
11348;SDS011;5729;43.570;27.826;2023-04-30T15:13:44;3.58;;;2.17;;
11348;SDS011;5729;43.570;27.826;2023-04-30T15:16:11;5.63;;;2.47;;
11348;SDS011;5729;43.570;27.826;2023-04-30T15:18:36;5.60;;;2.45;;
11348;SDS011;5729;43.570;27.826;2023-04-30T15:21:02;6.43;;;3.97;;